Time;durP1;ratioP1;P1;durP2;ratioP2;P2;SDS_P1;SDS_P2;PMS_P1;PMS_P2;Temp;Humidity;BMP_temperature;BMP_pressure;BME280_temperature;BME280_humidity;BME280_pressure;Samples;Min_cycle;Max_cycle;Signal;HPM_P1;HPM_P2
2024/02/18 00:02:23;;;;;;;7.80;4.50;;;;;;;-145.69;64.38;52319.63;5113666;28;20655;-78
2024/02/18 00:04:51;;;;;;;9.57;3.87;;;;;;;-145.69;64.04;52270.13;5113151;28;20197;-79
2024/02/18 00:07:21;;;;;;;9.60;3.70;;;;;;;-145.69;64.01;52278.03;5113403;28;20228;-79
2024/02/18 00:09:47;;;;;;;7.17;3.80;;;;;;;-145.69;64.11;52309.72;5112708;28;20221;-79
2024/02/18 00:12:24;;;;;;;7.00;4.40;;;;;;;-145.69;63.50;52307.75;5113515;28;20296;-79
2024/02/18 00:14:53;;;;;;;8.30;3.67;;;;;;;-145.69;63.67;52333.47;5113548;28;20196;-79
2024/02/18 00:17:24;;;;;;;6.50;4.00;;;;;;;-145.69;64.01;52335.47;5113637;28;20197;-79
2024/02/18 00:19:54;;;;;;;9.23;4.23;;;;;;;-145.69;63.71;52309.72;5112990;28;20231;-80
2024/02/18 00:22:23;;;;;;;7.33;3.93;;;;;;;-145.69;64.35;52303.78;5113273;28;20205;-80
2024/02/18 00:24:51;;;;;;;11.43;4.23;;;;;;;-145.69;63.88;52295.84;5113314;28;20213;-80
2024/02/18 00:27:27;;;;;;;7.37;4.13;;;;;;;-145.69;63.89;52309.72;5113557;28;20309;-80
2024/02/18 00:29:53;;;;;;;11.07;3.90;;;;;;;-145.69;63.89;52270.13;5113319;28;20625;-80
2024/02/18 00:32:21;;;;;;;10.33;5.03;;;;;;;-145.69;64.66;52315.66;5113328;28;20284;-80
2024/02/18 00:34:49;;;;;;;8.03;3.93;;;;;;;-145.69;64.30;52323.59;5113163;28;20196;-79
2024/02/18 00:37:21;;;;;;;8.90;4.87;;;;;;;-145.69;64.73;52333.47;5113163;28;20288;-80
2024/02/18 00:39:55;;;;;;;7.77;4.50;;;;;;;-145.69;64.45;52299.81;5113105;28;20197;-79
2024/02/18 00:42:35;;;;;;;9.30;5.03;;;;;;;-145.69;64.29;52287.94;5113092;28;20194;-79
2024/02/18 00:45:05;;;;;;;14.90;5.47;;;;;;;-145.69;64.19;52329.53;5112654;28;20199;-79
2024/02/18 00:47:34;;;;;;;12.10;5.50;;;;;;;-145.69;64.53;52311.69;5113147;28;20222;-79
2024/02/18 00:50:04;;;;;;;10.03;4.50;;;;;;;-145.69;64.46;52313.69;5112809;28;20239;-80
2024/02/18 00:52:33;;;;;;;9.70;5.60;;;;;;;-145.69;64.46;52309.72;5113278;28;20217;-79
2024/02/18 00:55:05;;;;;;;14.93;6.93;;;;;;;-145.69;64.93;52343.38;5112616;28;20197;-80
2024/02/18 00:57:36;;;;;;;15.70;7.53;;;;;;;-145.69;65.26;52282.00;5112925;28;20197;-79
2024/02/18 01:00:03;;;;;;;17.43;8.93;;;;;;;-145.69;64.91;52319.63;5112843;28;20243;-80
2024/02/18 01:02:30;;;;;;;15.93;9.40;;;;;;;-145.69;65.73;52315.66;5112813;28;20194;-79
2024/02/18 01:05:02;;;;;;;27.90;11.97;;;;;;;-145.69;66.28;52331.50;5112464;28;20197;-79
2024/02/18 01:07:33;;;;;;;22.73;12.50;;;;;;;-145.69;66.48;52337.44;5111633;27;20229;-79
2024/02/18 01:10:01;;;;;;;25.13;12.53;;;;;;;-145.69;66.38;52335.47;5112314;28;20186;-79
2024/02/18 01:12:28;;;;;;;24.70;12.00;;;;;;;-145.69;66.42;52333.47;5111551;28;20198;-79
2024/02/18 01:14:58;;;;;;;22.30;11.10;;;;;;;-145.69;66.59;52325.56;5109165;28;20644;-79
2024/02/18 01:17:26;;;;;;;21.97;11.60;;;;;;;-145.69;65.78;52345.38;5106630;28;20198;-79
2024/02/18 01:19:57;;;;;;;20.60;11.10;;;;;;;-145.69;66.56;52343.38;5114816;28;20201;-79
2024/02/18 01:22:28;;;;;;;26.50;12.07;;;;;;;-145.69;66.51;52347.34;5116435;28;20193;-79
2024/02/18 01:24:56;;;;;;;25.83;11.57;;;;;;;-145.69;67.38;52325.56;5116700;28;20280;-78
2024/02/18 01:27:26;;;;;;;23.53;12.23;;;;;;;-145.69;67.44;52337.44;5116081;28;20691;-79
2024/02/18 01:30:04;;;;;;;27.53;13.73;;;;;;;-145.69;67.74;52333.47;5116873;28;20284;-79
2024/02/18 01:32:36;;;;;;;29.97;15.47;;;;;;;-145.69;68.34;52317.66;5116641;28;20196;-80
2024/02/18 01:35:02;;;;;;;33.23;15.67;;;;;;;-145.69;68.50;52343.38;5116360;28;20194;-80
2024/02/18 01:37:33;;;;;;;38.80;17.23;;;;;;;-145.69;68.17;52349.31;5116553;28;20690;-79
2024/02/18 01:40:07;;;;;;;47.60;19.43;;;;;;;-145.69;67.98;52309.72;5116815;28;20181;-80
2024/02/18 01:42:37;;;;;;;40.83;19.87;;;;;;;-145.69;68.48;52317.66;5116723;28;20197;-79
2024/02/18 01:45:11;;;;;;;37.47;19.47;;;;;;;-145.69;68.50;52309.72;5116381;28;20185;-78
2024/02/18 01:47:43;;;;;;;38.87;19.17;;;;;;;-145.69;67.75;52323.59;5116302;28;20225;-79
2024/02/18 01:50:10;;;;;;;41.67;19.90;;;;;;;-145.69;67.01;52345.38;5115694;28;20719;-79
2024/02/18 01:52:39;;;;;;;36.17;19.03;;;;;;;-145.69;67.20;52321.59;5116153;28;20236;-80
2024/02/18 01:55:07;;;;;;;40.10;18.67;;;;;;;-145.69;67.55;52339.44;5116067;28;20211;-79
2024/02/18 01:57:34;;;;;;;35.53;18.23;;;;;;;-145.69;68.17;52351.31;5116207;28;20208;-79
2024/02/18 02:00:02;;;;;;;37.17;18.43;;;;;;;-145.69;68.32;52325.56;5116320;28;20208;-79
2024/02/18 02:02:29;;;;;;;37.97;18.97;;;;;;;-145.69;68.43;52337.44;5116013;28;20228;-79
2024/02/18 02:04:58;;;;;;;44.60;19.37;;;;;;;-145.69;68.43;52325.56;5115413;28;20197;-80
2024/02/18 02:07:25;;;;;;;39.57;19.63;;;;;;;-145.69;68.27;52327.53;5116003;28;20221;-80
2024/02/18 02:09:52;;;;;;;40.73;19.33;;;;;;;-145.69;67.97;52319.63;5115977;28;20563;-80
2024/02/18 02:12:18;;;;;;;36.20;18.40;;;;;;;-145.69;67.52;52337.44;5115967;28;20205;-80
2024/02/18 02:14:45;;;;;;;40.27;19.27;;;;;;;-145.69;67.41;52323.59;5115855;28;20201;-79
2024/02/18 02:17:14;;;;;;;40.00;19.27;;;;;;;-145.69;66.91;52313.69;5115728;28;20198;-79
2024/02/18 02:19:40;;;;;;;36.70;18.33;;;;;;;-145.69;67.42;52295.84;5115744;28;20197;-79
2024/02/18 02:22:08;;;;;;;36.47;17.90;;;;;;;-145.69;67.05;52297.84;5115058;28;20212;-80
2024/02/18 02:24:35;;;;;;;32.70;16.17;;;;;;;-145.69;66.70;52325.56;5115881;28;20254;-81
2024/02/18 02:27:04;;;;;;;35.53;16.83;;;;;;;-145.69;67.23;52333.47;5115528;28;20197;-80
2024/02/18 02:29:34;;;;;;;34.10;16.87;;;;;;;-145.69;66.73;52337.44;5114984;27;20229;-79
2024/02/18 02:32:01;;;;;;;34.30;17.03;;;;;;;-145.69;66.36;52341.41;5115005;28;20206;-78
2024/02/18 02:34:28;;;;;;;35.50;16.07;;;;;;;-145.69;66.31;52311.69;5115553;28;20197;-78
2024/02/18 02:36:54;;;;;;;36.77;16.43;;;;;;;-145.69;66.66;52329.53;5115447;28;20189;-79
2024/02/18 02:39:21;;;;;;;29.83;14.87;;;;;;;-145.69;66.67;52349.31;5115286;28;20205;-79
2024/02/18 02:41:47;;;;;;;33.20;16.17;;;;;;;-145.69;66.79;52311.69;5115346;28;20287;-78
2024/02/18 02:44:14;;;;;;;32.33;17.03;;;;;;;-145.69;66.91;52333.47;5115388;28;20194;-78
2024/02/18 02:46:42;;;;;;;33.00;16.43;;;;;;;-145.69;66.73;52297.84;5114760;28;20197;-78
2024/02/18 02:49:08;;;;;;;31.23;16.73;;;;;;;-145.69;66.65;52321.59;5114832;28;20700;-78
2024/02/18 02:51:34;;;;;;;33.57;15.93;;;;;;;-145.69;66.36;52307.75;5115334;28;20284;-78
2024/02/18 02:54:04;;;;;;;32.70;16.30;;;;;;;-145.69;66.37;52345.38;5115175;28;20644;-78
2024/02/18 02:56:31;;;;;;;32.90;15.53;;;;;;;-145.69;67.08;52359.22;5114921;28;20215;-79
2024/02/18 02:58:59;;;;;;;40.53;16.97;;;;;;;-145.69;67.87;52345.38;5114462;28;20276;-79
2024/02/18 03:01:25;;;;;;;32.33;15.93;;;;;;;-145.69;68.26;52337.44;5115254;28;20194;-78
2024/02/18 03:03:56;;;;;;;33.90;16.90;;;;;;;-145.69;68.13;52347.34;5114729;28;20242;-79
2024/02/18 03:06:22;;;;;;;33.77;16.43;;;;;;;-145.69;67.95;52349.31;5114925;28;20648;-79
2024/02/18 03:08:49;;;;;;;36.57;18.03;;;;;;;-145.69;68.39;52339.44;5114025;27;20225;-80
2024/02/18 03:11:19;;;;;;;33.17;16.17;;;;;;;-145.69;68.68;52317.66;5114898;28;20578;-79
2024/02/18 03:13:45;;;;;;;32.90;16.70;;;;;;;-145.69;69.07;52357.25;5114591;28;20659;-79
2024/02/18 03:16:13;;;;;;;29.60;15.90;;;;;;;-145.69;68.72;52309.72;5114688;28;20204;-79
2024/02/18 03:18:42;;;;;;;33.03;17.10;;;;;;;-145.69;68.65;52313.69;5114798;28;20208;-79
2024/02/18 03:21:16;;;;;;;31.33;15.47;;;;;;;-145.69;68.29;52327.53;5113724;28;20186;-80
2024/02/18 03:23:49;;;;;;;30.27;15.50;;;;;;;-145.69;67.97;52333.47;5114376;28;20221;-79
2024/02/18 03:26:18;;;;;;;34.70;16.67;;;;;;;-145.69;68.79;52369.13;5114472;28;20346;-79
2024/02/18 03:28:45;;;;;;;32.80;15.33;;;;;;;-145.69;68.34;52323.59;5114473;28;20226;-78
2024/02/18 03:31:16;;;;;;;28.60;14.57;;;;;;;-145.69;67.72;52329.53;5114049;28;20202;-79
2024/02/18 03:33:45;;;;;;;36.70;16.80;;;;;;;-145.69;67.18;52317.66;5114061;28;20199;-79
2024/02/18 03:36:14;;;;;;;36.30;15.07;;;;;;;-145.69;67.58;52337.44;5114484;28;20201;-79
2024/02/18 03:38:40;;;;;;;29.07;14.67;;;;;;;-145.69;67.41;52355.28;5114127;28;20564;-79
2024/02/18 03:41:07;;;;;;;27.43;15.10;;;;;;;-145.69;67.40;52339.44;5113267;27;20584;-79
2024/02/18 03:43:35;;;;;;;27.27;14.67;;;;;;;-145.69;67.18;52331.50;5114354;28;20197;-79
2024/02/18 03:46:02;;;;;;;31.23;15.00;;;;;;;-145.69;67.34;52331.50;5113992;28;20189;-79
2024/02/18 03:48:33;;;;;;;29.10;14.50;;;;;;;-145.69;67.50;52319.63;5114022;27;20228;-79
2024/02/18 03:50:59;;;;;;;26.43;13.87;;;;;;;-145.69;67.20;52327.53;5113266;28;20229;-78
2024/02/18 03:53:33;;;;;;;32.47;15.40;;;;;;;-145.69;67.11;52353.28;5113765;28;20666;-79
2024/02/18 03:56:01;;;;;;;34.73;15.37;;;;;;;-145.69;67.29;52315.66;5113728;28;20197;-80
2024/02/18 03:58:29;;;;;;;28.40;13.83;;;;;;;-145.69;66.99;52317.66;5113860;28;20205;-79
2024/02/18 04:01:03;;;;;;;26.40;13.40;;;;;;;-145.69;66.90;52337.44;5113988;28;20235;-79
2024/02/18 04:03:30;;;;;;;28.97;14.13;;;;;;;-145.69;67.08;52309.72;5113692;28;20205;-79
2024/02/18 04:05:56;;;;;;;25.80;13.07;;;;;;;-145.69;67.23;52313.69;5113424;28;20202;-79
2024/02/18 04:08:23;;;;;;;26.07;13.73;;;;;;;-145.69;67.11;52361.22;5113741;28;20580;-79
2024/02/18 04:10:51;;;;;;;28.13;14.30;;;;;;;-145.69;66.95;52297.84;5113132;28;20193;-79
2024/02/18 04:13:17;;;;;;;28.40;14.50;;;;;;;-145.69;67.18;52317.66;5113690;28;20561;-79
2024/02/18 04:15:44;;;;;;;26.57;14.20;;;;;;;-145.69;66.87;52321.59;5113128;28;20194;-79
2024/02/18 04:18:12;;;;;;;27.53;14.60;;;;;;;-145.69;67.09;52327.53;5113585;28;20250;-79
2024/02/18 04:20:39;;;;;;;26.27;13.40;;;;;;;-145.69;66.93;52321.59;5112882;28;20693;-79
2024/02/18 04:23:05;;;;;;;27.73;14.43;;;;;;;-145.69;67.31;52309.72;5113191;28;20250;-79
2024/02/18 04:25:34;;;;;;;28.93;14.03;;;;;;;-145.69;67.44;52337.44;5113315;28;20197;-79
2024/02/18 04:28:03;;;;;;;28.60;15.03;;;;;;;-145.69;66.86;52325.56;5113084;28;20197;-79
2024/02/18 04:30:31;;;;;;;26.90;14.10;;;;;;;-145.69;67.09;52327.53;5113091;28;20204;-80
2024/02/18 04:32:58;;;;;;;27.80;12.90;;;;;;;-145.69;66.78;52371.13;5113209;28;20606;-79
2024/02/18 04:35:25;;;;;;;28.10;12.87;;;;;;;-145.69;67.05;52325.56;5113199;28;20193;-79
2024/02/18 04:37:51;;;;;;;27.50;14.00;;;;;;;-145.69;66.81;52319.63;5113089;28;20213;-79
2024/02/18 04:40:20;;;;;;;24.80;13.67;;;;;;;-145.69;66.50;52363.19;5112984;28;20205;-79
2024/02/18 04:42:49;;;;;;;21.73;12.53;;;;;;;-145.69;66.63;52321.59;5113245;27;20197;-79
2024/02/18 04:45:19;;;;;;;34.03;13.93;;;;;;;-145.69;66.89;52321.59;5112661;28;20242;-79
2024/02/18 04:47:46;;;;;;;27.30;13.00;;;;;;;-145.69;66.64;52347.34;5113304;28;20201;-79
2024/02/18 04:50:16;;;;;;;27.53;12.83;;;;;;;-145.69;66.74;52329.53;5112915;28;20229;-80
2024/02/18 04:52:43;;;;;;;27.37;13.80;;;;;;;-145.69;66.95;52341.41;5112413;28;20258;-80
2024/02/18 04:55:12;;;;;;;29.20;13.07;;;;;;;-145.69;66.85;52325.56;5112870;28;20189;-80
2024/02/18 04:57:38;;;;;;;25.70;12.80;;;;;;;-145.69;67.42;52347.34;5112774;28;20660;-79
2024/02/18 05:00:07;;;;;;;26.57;12.87;;;;;;;-145.69;67.18;52345.38;5112926;28;20245;-79
2024/02/18 05:02:35;;;;;;;25.90;13.60;;;;;;;-145.69;67.75;52333.47;5112793;28;20727;-80
2024/02/18 05:05:01;;;;;;;22.23;12.40;;;;;;;-145.69;67.67;52333.47;5112799;28;20194;-79
2024/02/18 05:07:28;;;;;;;25.47;13.37;;;;;;;-145.69;67.31;52341.41;5113039;28;20292;-79
2024/02/18 05:09:54;;;;;;;30.60;12.80;;;;;;;-145.69;67.50;52373.09;5111835;28;20260;-79
2024/02/18 05:12:22;;;;;;;22.93;11.53;;;;;;;-145.69;67.74;52357.25;5112786;28;20197;-79
2024/02/18 05:14:56;;;;;;;20.07;9.93;;;;;;;-145.69;68.40;52329.53;5112344;28;20334;-79
2024/02/18 05:17:24;;;;;;;25.13;10.47;;;;;;;-145.69;67.75;52333.47;5111649;28;20203;-78
2024/02/18 05:19:55;;;;;;;21.00;11.13;;;;;;;-145.69;67.26;52353.28;5112852;28;20295;-78
2024/02/18 05:22:23;;;;;;;16.60;9.53;;;;;;;-145.69;66.80;52297.84;5112495;28;20194;-78
2024/02/18 05:24:55;;;;;;;23.40;10.47;;;;;;;-145.69;65.88;52325.56;5112528;28;20196;-79
2024/02/18 05:27:22;;;;;;;21.93;10.40;;;;;;;-145.69;65.91;52377.06;5113018;28;20261;-79
2024/02/18 05:29:48;;;;;;;18.60;9.57;;;;;;;-145.69;66.11;52347.34;5112260;28;20228;-78
2024/02/18 05:32:14;;;;;;;19.03;10.00;;;;;;;-145.69;65.80;52335.47;5112909;28;20201;-78
2024/02/18 05:34:41;;;;;;;19.27;9.13;;;;;;;-145.69;65.98;52341.41;5112295;28;20197;-78
2024/02/18 05:37:10;;;;;;;20.53;9.80;;;;;;;-145.69;65.71;52341.41;5112377;28;20243;-79
2024/02/18 05:39:37;;;;;;;17.33;8.77;;;;;;;-145.69;65.81;52323.59;5112536;28;20220;-78
2024/02/18 05:42:06;;;;;;;16.13;8.20;;;;;;;-145.69;65.04;52357.25;5112641;28;20201;-79
2024/02/18 05:44:33;;;;;;;16.63;8.13;;;;;;;-145.69;65.56;52353.28;5112239;28;20269;-80
2024/02/18 05:47:00;;;;;;;15.67;8.10;;;;;;;-145.69;65.77;52353.28;5112651;28;20296;-79
2024/02/18 05:49:26;;;;;;;13.27;6.87;;;;;;;-145.69;65.64;52353.28;5112443;28;20244;-79
2024/02/18 05:51:53;;;;;;;15.10;7.73;;;;;;;-145.69;65.97;52327.53;5111786;27;20739;-79
2024/02/18 05:54:20;;;;;;;13.27;7.43;;;;;;;-145.69;66.06;52363.19;5112332;28;20251;-79
2024/02/18 05:56:50;;;;;;;14.87;7.67;;;;;;;-145.69;65.99;52355.28;5112406;28;20236;-79
2024/02/18 05:59:21;;;;;;;15.30;7.47;;;;;;;-145.69;66.56;52333.47;5112576;28;20567;-79
2024/02/18 06:01:50;;;;;;;13.30;6.70;;;;;;;-145.69;66.29;52339.44;5112010;28;20724;-79
2024/02/18 06:04:21;;;;;;;13.73;6.90;;;;;;;-145.69;65.91;52341.41;5114031;28;20205;-79
2024/02/18 06:06:48;;;;;;;14.20;6.47;;;;;;;-145.69;66.44;52349.31;5116427;28;20298;-79
2024/02/18 06:09:14;;;;;;;11.63;6.60;;;;;;;-145.69;65.93;52363.19;5115929;28;20236;-79
2024/02/18 06:11:42;;;;;;;14.57;6.97;;;;;;;-145.69;65.52;52325.56;5115770;27;20193;-80
2024/02/18 06:14:08;;;;;;;15.63;7.63;;;;;;;-145.69;65.34;52355.28;5115594;28;20201;-79
2024/02/18 06:16:35;;;;;;;11.30;6.87;;;;;;;-145.69;65.24;52349.31;5115669;28;20529;-79
2024/02/18 06:19:03;;;;;;;15.83;7.87;;;;;;;-145.69;65.39;52329.53;5115485;28;20216;-79
2024/02/18 06:21:30;;;;;;;16.67;7.40;;;;;;;-145.69;65.41;52347.34;5115520;28;20568;-79
2024/02/18 06:23:59;;;;;;;15.27;8.37;;;;;;;-145.69;65.26;52315.66;5115716;28;20692;-78
2024/02/18 06:26:27;;;;;;;16.40;7.60;;;;;;;-145.69;65.27;52329.53;5115299;28;20266;-78
2024/02/18 06:28:55;;;;;;;15.97;7.80;;;;;;;-145.69;65.40;52325.56;5115697;27;20308;-78
2024/02/18 06:31:21;;;;;;;17.03;9.10;;;;;;;-145.69;65.26;52321.59;5114939;28;20244;-78
2024/02/18 06:33:48;;;;;;;17.77;7.90;;;;;;;-145.69;66.03;52353.28;5115630;27;20237;-79
2024/02/18 06:36:18;;;;;;;15.83;7.07;;;;;;;-145.69;65.40;52321.59;5115284;28;20594;-80
2024/02/18 06:38:45;;;;;;;13.03;7.03;;;;;;;-145.69;66.20;52329.53;5115492;27;20652;-78
2024/02/18 06:41:12;;;;;;;13.10;6.63;;;;;;;-145.69;66.06;52384.97;5115506;28;20225;-80
2024/02/18 06:43:40;;;;;;;16.47;6.17;;;;;;;-145.69;66.36;52333.47;5115459;28;20205;-78
2024/02/18 06:46:10;;;;;;;12.77;6.33;;;;;;;-145.69;66.22;52357.25;5115025;28;20212;-79
2024/02/18 06:48:36;;;;;;;13.23;6.57;;;;;;;-145.69;66.75;52339.44;5115096;28;20200;-79
2024/02/18 06:51:05;;;;;;;10.60;5.97;;;;;;;-145.69;66.58;52323.59;5114488;28;20232;-79
2024/02/18 06:53:31;;;;;;;10.13;6.13;;;;;;;-145.69;66.18;52321.59;5115097;28;20197;-79
2024/02/18 06:55:59;;;;;;;14.23;6.90;;;;;;;-145.69;66.29;52337.44;5114681;28;20197;-78
2024/02/18 06:58:25;;;;;;;13.87;6.40;;;;;;;-145.69;66.16;52341.41;5114730;28;20197;-79
2024/02/18 07:00:52;;;;;;;13.10;7.17;;;;;;;-145.69;66.42;52345.38;5114906;28;20598;-78
2024/02/18 07:03:23;;;;;;;12.27;6.20;;;;;;;-145.69;65.78;52333.47;5114730;28;20289;-77
2024/02/18 07:05:49;;;;;;;13.07;6.93;;;;;;;-145.69;66.00;52339.44;5114569;28;20201;-79
2024/02/18 07:08:19;;;;;;;12.00;7.17;;;;;;;-145.69;65.68;52337.44;5114469;27;20205;-77
2024/02/18 07:10:51;;;;;;;16.30;7.00;;;;;;;-145.69;65.29;52321.59;5114815;28;20236;-79
2024/02/18 07:13:20;;;;;;;14.00;6.60;;;;;;;-145.69;65.16;52339.44;5114469;28;20201;-79
2024/02/18 07:15:49;;;;;;;16.23;7.17;;;;;;;-145.69;65.41;52333.47;5114340;28;20208;-79
2024/02/18 07:18:23;;;;;;;14.07;7.23;;;;;;;-145.69;65.37;52307.75;5114674;28;20579;-78
2024/02/18 07:20:50;;;;;;;13.13;7.27;;;;;;;-145.69;65.83;52349.31;5114857;28;20743;-79
2024/02/18 07:23:16;;;;;;;18.37;8.27;;;;;;;-145.69;65.32;52343.38;5114344;28;20204;-79
2024/02/18 07:25:51;;;;;;;13.37;7.47;;;;;;;-145.69;64.68;52359.22;5113761;28;20247;-79
2024/02/18 07:28:18;;;;;;;14.40;7.50;;;;;;;-145.69;64.25;52333.47;5114197;28;20204;-79
2024/02/18 07:30:46;;;;;;;11.60;6.03;;;;;;;-145.69;63.19;52329.53;5114379;27;20613;-78
2024/02/18 07:33:12;;;;;;;13.77;7.63;;;;;;;-145.69;62.67;52307.75;5114340;28;20197;-79
2024/02/18 07:35:40;;;;;;;16.50;7.23;;;;;;;-145.69;62.04;52299.81;5113370;28;20197;-79
2024/02/18 07:38:07;;;;;;;10.53;6.33;;;;;;;-145.69;61.00;52295.84;5114098;28;20276;-78
2024/02/18 07:40:36;;;;;;;17.17;7.10;;;;;;;-145.69;61.04;52303.78;5113850;28;20229;-79
2024/02/18 07:43:02;;;;;;;13.33;6.60;;;;;;;-145.69;60.34;52283.97;5114175;27;20197;-79
2024/02/18 07:45:28;;;;;;;17.50;6.57;;;;;;;-145.69;60.06;52313.69;5113743;28;20198;-79
2024/02/18 07:47:58;;;;;;;14.30;6.10;;;;;;;-145.69;59.62;52282.00;5114147;28;20601;-79
2024/02/18 07:50:24;;;;;;;11.40;6.03;;;;;;;-145.69;59.61;52319.63;5114114;28;20244;-80
2024/02/18 07:52:53;;;;;;;12.37;6.40;;;;;;;-145.69;58.75;52289.91;5113850;28;20210;-81
2024/02/18 07:55:20;;;;;;;9.90;5.57;;;;;;;-145.69;58.71;52301.81;5113712;28;20193;-81
2024/02/18 07:57:48;;;;;;;9.37;5.37;;;;;;;-145.69;58.48;52317.66;5113728;28;20276;-79
2024/02/18 08:00:20;;;;;;;10.43;5.07;;;;;;;-145.69;58.01;52282.00;5113502;28;20201;-81
2024/02/18 08:02:48;;;;;;;9.47;4.90;;;;;;;-145.69;57.95;52297.84;5113871;28;20201;-80
2024/02/18 08:05:15;;;;;;;7.93;4.57;;;;;;;-145.69;57.75;52295.84;5113387;28;20268;-79
2024/02/18 08:07:44;;;;;;;8.40;4.77;;;;;;;-145.69;57.49;52264.16;5113500;27;20197;-81
2024/02/18 08:10:16;;;;;;;9.20;4.90;;;;;;;-145.69;56.77;52258.22;5113517;28;20236;-80
2024/02/18 08:12:45;;;;;;;8.47;4.57;;;;;;;-145.69;56.04;52278.03;5113749;28;20300;-80
2024/02/18 08:15:14;;;;;;;8.90;4.70;;;;;;;-145.69;56.20;52287.94;5112753;28;20197;-80
2024/02/18 08:17:42;;;;;;;7.27;4.13;;;;;;;-145.69;56.03;52307.75;5112511;28;20206;-80
2024/02/18 08:20:11;;;;;;;7.10;4.10;;;;;;;-145.69;56.17;52289.91;5112853;28;20266;-79
2024/02/18 08:22:38;;;;;;;8.70;4.53;;;;;;;-145.69;55.81;52289.91;5112987;28;20201;-79
2024/02/18 08:25:11;;;;;;;9.67;4.27;;;;;;;-145.69;54.96;52272.09;5112992;28;20255;-79
2024/02/18 08:27:39;;;;;;;6.63;3.80;;;;;;;-145.69;53.70;52262.19;5112957;28;20240;-79
2024/02/18 08:30:08;;;;;;;8.27;3.20;;;;;;;-145.69;54.18;52305.75;5113159;28;20260;-81
2024/02/18 08:32:37;;;;;;;5.33;3.37;;;;;;;-145.69;54.13;52280.00;5113353;28;20201;-79
2024/02/18 08:35:07;;;;;;;13.10;4.67;;;;;;;-145.69;53.83;52264.16;5112328;28;20200;-78
2024/02/18 08:37:42;;;;;;;12.67;4.57;;;;;;;-145.69;52.36;52244.38;5112945;28;20279;-79
2024/02/18 08:40:12;;;;;;;7.37;3.63;;;;;;;-145.69;51.76;52262.19;5113125;28;20199;-79
2024/02/18 08:42:45;;;;;;;6.10;3.77;;;;;;;-145.69;51.54;52254.28;5113099;28;20652;-79
2024/02/18 08:45:18;;;;;;;7.33;3.00;;;;;;;-145.69;49.69;52262.19;5112728;28;20196;-79
2024/02/18 08:48:02;;;;;;;7.23;3.30;;;;;;;-145.69;50.44;52272.09;5112881;28;20254;-80
2024/02/18 08:50:31;;;;;;;5.43;2.73;;;;;;;-145.69;49.95;52238.44;5112543;28;20233;-79
2024/02/18 08:52:58;;;;;;;7.30;3.20;;;;;;;-145.69;49.96;52285.97;5126026;27;20193;-79
2024/02/18 08:55:27;;;;;;;4.33;3.00;;;;;;;-145.69;49.13;52254.28;5115663;27;20193;-79
2024/02/18 08:57:57;;;;;;;5.67;2.87;;;;;;;-145.69;48.57;52238.44;5112560;28;20193;-80
2024/02/18 09:00:23;;;;;;;6.27;3.37;;;;;;;-145.69;48.62;52242.38;5112500;28;20189;-80
2024/02/18 09:02:51;;;;;;;8.00;3.10;;;;;;;-145.69;47.40;52250.31;5112992;28;20194;-79
2024/02/18 09:05:18;;;;;;;4.33;3.00;;;;;;;-145.69;47.76;52228.53;5112723;28;20284;-79
2024/02/18 09:07:45;;;;;;;6.33;3.23;;;;;;;-145.69;47.01;52264.16;5112374;28;20652;-79
2024/02/18 09:10:15;;;;;;;4.90;2.60;;;;;;;-145.69;47.19;52250.31;5112920;28;20228;-79
2024/02/18 09:12:57;;;;;;;4.83;3.30;;;;;;;-145.69;46.45;52244.38;5112681;28;20197;-79
2024/02/18 09:15:30;;;;;;;7.35;2.97;;;;;;;-145.69;45.88;52226.53;5112820;28;20201;-79
2024/02/18 09:17:58;;;;;;;5.30;3.13;;;;;;;-145.69;45.95;52230.50;5112927;28;20236;-79
2024/02/18 09:20:29;;;;;;;7.60;3.45;;;;;;;-145.69;46.38;52208.72;5112648;28;20213;-79
2024/02/18 09:23:00;;;;;;;5.13;2.90;;;;;;;-145.69;45.80;52238.44;5112623;27;20205;-80
2024/02/18 09:25:29;;;;;;;7.95;2.88;;;;;;;-145.69;45.98;52230.50;5112206;28;20242;-79
2024/02/18 09:27:56;;;;;;;5.72;3.17;;;;;;;-145.69;45.80;52230.50;5112022;28;20647;-79
2024/02/18 09:30:22;;;;;;;7.97;3.00;;;;;;;-145.69;45.32;52248.34;5112324;28;20224;-81
2024/02/18 09:32:54;;;;;;;6.93;3.38;;;;;;;-145.69;44.48;52214.66;5112691;28;20194;-79
2024/02/18 09:35:26;;;;;;;5.40;2.45;;;;;;;-145.69;45.52;52234.47;5112354;28;20209;-81
2024/02/18 09:37:53;;;;;;;11.45;3.40;;;;;;;-145.69;44.96;52230.50;5112914;28;20247;-79
2024/02/18 09:40:36;;;;;;;8.38;3.40;;;;;;;-145.69;44.25;52254.28;5116311;28;20205;-79
2024/02/18 09:43:14;;;;;;;5.90;2.70;;;;;;;-145.69;43.93;52224.56;5116635;27;20203;-79
2024/02/18 09:45:43;;;;;;;7.75;3.25;;;;;;;-145.69;44.13;52194.88;5116568;28;20193;-80
2024/02/18 09:48:16;;;;;;;8.57;3.28;;;;;;;-145.69;44.11;52198.81;5116906;28;20205;-79
2024/02/18 09:50:58;;;;;;;;;;;;;;;;;;;;;
2024/02/18 09:53:26;;;;;;;8.73;3.75;;;;;;;-145.69;44.71;52179.03;5116184;28;20563;-80
2024/02/18 09:55:56;;;;;;;5.32;3.50;;;;;;;-145.69;44.34;52194.88;5115892;28;20206;-81
2024/02/18 09:58:28;;;;;;;8.57;3.78;;;;;;;-145.69;43.32;52192.88;5116524;28;20228;-81
2024/02/18 10:00:58;;;;;;;5.75;3.55;;;;;;;-145.69;43.66;52212.69;5115883;28;20686;-80
2024/02/18 10:03:27;;;;;;;8.25;3.72;;;;;;;-145.69;43.39;52196.84;5116287;28;20202;-80
2024/02/18 10:05:54;;;;;;;6.55;3.67;;;;;;;-145.69;43.58;52198.81;5115464;28;20396;-80
2024/02/18 10:08:21;;;;;;;10.02;3.97;;;;;;;-145.69;44.75;52214.66;5115799;28;20668;-80
2024/02/18 10:10:50;;;;;;;6.90;4.20;;;;;;;-145.69;44.40;52167.13;5115933;28;20316;-81
2024/02/18 10:13:25;;;;;;;8.13;4.50;;;;;;;-145.69;44.49;52204.75;5115960;28;20296;-80
2024/02/18 10:15:54;;;;;;;7.63;4.38;;;;;;;-145.69;43.65;52198.81;5115898;28;20192;-81
2024/02/18 10:18:22;;;;;;;8.85;3.90;;;;;;;-145.69;43.34;52179.03;5115999;28;20204;-80
2024/02/18 10:20:54;;;;;;;7.30;4.20;;;;;;;-145.69;43.20;52175.06;5116007;28;20621;-79
2024/02/18 10:23:20;;;;;;;9.63;4.68;;;;;;;-145.69;42.24;52155.25;5113155;28;20293;-79
2024/02/18 10:25:49;;;;;;;8.98;4.35;;;;;;;-145.69;42.57;52137.44;5114918;28;20201;-79
2024/02/18 10:28:16;;;;;;;9.95;4.47;;;;;;;-145.69;41.95;52163.19;5112966;28;20672;-79
2024/02/18 10:30:55;;;;;;;6.10;4.20;;;;;;;-145.69;41.74;52135.47;5111074;28;20564;-80
2024/02/18 10:33:21;;;;;;;7.75;4.68;;;;;;;-145.69;41.90;52139.41;5114428;28;20204;-80
2024/02/18 10:36:04;;;;;;;8.13;4.68;;;;;;;-145.69;41.18;52155.25;5114738;28;20193;-80
2024/02/18 10:38:35;;;;;;;8.55;4.68;;;;;;;-145.69;40.94;52137.44;5114443;28;20197;-80
2024/02/18 10:41:03;;;;;;;9.73;4.90;;;;;;;-145.69;41.14;52119.63;5114597;28;20549;-80
2024/02/18 10:43:32;;;;;;;7.20;4.63;;;;;;;-145.69;40.36;52127.53;5114738;28;20651;-79
2024/02/18 10:46:05;;;;;;;8.60;4.32;;;;;;;-145.69;41.36;52119.63;5114734;28;20193;-79
2024/02/18 10:48:35;;;;;;;58.00;18.90;;;;;;;-145.69;41.27;52171.09;5115080;28;20208;-79
2024/02/18 10:51:09;;;;;;;19.08;8.55;;;;;;;-145.69;40.79;52119.63;5113973;28;20233;-79
2024/02/18 10:53:45;;;;;;;8.85;5.03;;;;;;;-145.69;40.59;52165.16;5111118;27;20203;-78
2024/02/18 10:56:13;;;;;;;10.50;4.72;;;;;;;-145.69;40.32;52119.63;5114688;28;20193;-79
2024/02/18 10:58:52;;;;;;;9.98;5.20;;;;;;;-145.69;40.45;52125.56;5115261;27;20205;-79
2024/02/18 11:01:23;;;;;;;8.63;5.50;;;;;;;-145.69;40.69;52117.63;5104145;27;20235;-81
2024/02/18 11:04:07;;;;;;;9.75;5.53;;;;;;;-145.69;41.29;52163.19;5135345;27;20197;-78
2024/02/18 11:06:39;;;;;;;9.77;5.38;;;;;;;-145.69;41.20;52107.72;5120441;27;20201;-79
2024/02/18 11:09:09;;;;;;;12.35;5.65;;;;;;;-145.69;40.77;52145.34;5135125;27;20566;-78
2024/02/18 11:11:36;;;;;;;12.25;6.95;;;;;;;-145.69;40.96;52139.41;5135608;27;20224;-79
2024/02/18 11:14:04;;;;;;;11.15;5.82;;;;;;;-145.69;41.15;52145.34;5135622;27;20744;-79
2024/02/18 11:16:37;;;;;;;9.68;6.40;;;;;;;-145.69;40.98;52133.47;5124532;27;20200;-80
2024/02/18 11:19:04;;;;;;;10.18;5.90;;;;;;;-145.69;41.24;52143.38;5114911;28;20204;-81